Saturday, November 18, 2017, 9:53 PM EST
Back to Local

KDOV, Dover Air Force Base

Location: Dover, DE, United States Lat: 39.133
Local Time: 9:53 PM EST ( 2:53 GMT) Lon: -75.467
Time Zone: US/Eastern Elev: 29 ft

Show me the last for .
Show Coded

Time T Td Feel RH Dir Speed Gust Alt SLP Vis Weather Sky Remarks
2017-11-18 20:56 61 59 - 95 200° 21 31 29.52 29.53 10 CLR Peak wind: 36 mph (32 kts) from 210° at 39 min
2017-11-18 19:56 59 57 - 91 190° 16 26 29.55 29.56 10 CLR None
2017-11-18 18:56 58 54 - 86 180° 17 26 29.59 29.60 10 FEW140 6-hr Min Temp (7pm): 55.6°F
6-hr Max Temp (7pm): 60.1°F
2017-11-18 17:56 57 51 - 79 190° 15 - 29.62 29.63 10 FEW100 None
2017-11-18 16:56 56 49 - 77 190° 18 25 29.64 29.65 10 CLR None
2017-11-18 15:56 56 49 - 77 190° 20 29 29.65 29.66 10 FEW100 None
2017-11-18 14:56 59 52 - 78 190° 21 30 29.68 29.69 10 BKN095 Peak wind: 29 mph (26 kts) from 170° at 52 min
2017-11-18 13:56 58 53 - 82 170° 15 - 29.70 29.71 10 FEW075 SCT180 None
2017-11-18 12:56 58 55 - 87 180° 14 - 29.75 29.76 10 CLR 6-hr Min Temp (1pm): 34.7°F
6-hr Max Temp (1pm): 58.5°F
2017-11-18 11:56 54 53 - 94 170° 14 - 29.81 29.82 10 FEW120 None
2017-11-18 10:56 52 52 - 98 170° 14 - 29.87 29.88 10 FEW150 SCT190 None
2017-11-18 09:56 48 48 43 100 170° 12 - 29.91 29.92 10 SCT200 None
2017-11-18 08:56 45 45 40 100 160° 10 - 29.94 29.95 10 FEW200 None
2017-11-18 07:56 39 39 33 100 150° 8 - 29.96 29.97 10 CLR None
2017-11-18 06:56 35 35 28 100 150° 8 - 29.99 30.00 10 CLR 6-hr Min Temp (7am): 32.7°F
6-hr Max Temp (7am): 34.7°F
2017-11-18 05:56 34 34 27 100 170° 8 - 30.01 30.02 10 CLR None
2017-11-18 04:56 33 33 28 100 160° 6 - 30.02 30.03 10 CLR None
2017-11-18 03:56 33 33 28 100 180° 6 - 30.03 30.04 10 CLR None
2017-11-18 02:56 33 33 28 100 180° 5 - 30.04 30.05 10 CLR None
2017-11-18 01:56 34 34 31 100 150° 3 - 30.06 30.07 10 CLR None
2017-11-18 00:56 33 33 - 100 - Calm - 30.07 30.08 10 CLR 6-hr Min Temp (1am): 32.7°F
6-hr Max Temp (1am): 40.8°F
2017-11-17 23:56 33 33 30 100 210° 3 - 30.09 30.10 10 BKN160 24-hr Min Temp (12am): 32.9°F
24-hr Max Temp (12am): 51.1°F
2017-11-17 22:56 34 34 - 100 - Calm - 30.11 30.12 10 CLR None
2017-11-17 21:56 34 26 29 71 180° 6 - 30.12 30.13 10 CLR None

Support USWX by starting your Amazon purchase here.